createdAt,value
2018-06-13T00:00:05.798Z,68
2018-06-13T00:01:06.510Z,67
2018-06-13T00:02:07.222Z,67
2018-06-13T00:03:07.933Z,67
2018-06-13T00:04:08.645Z,67
2018-06-13T00:05:09.356Z,67
2018-06-13T00:06:10.067Z,67
2018-06-13T00:07:10.780Z,67
2018-06-13T00:08:11.491Z,67
2018-06-13T00:09:12.202Z,67
2018-06-13T00:10:12.912Z,67
2018-06-13T00:11:13.636Z,66
2018-06-13T00:12:14.347Z,67
2018-06-13T00:13:15.059Z,66
2018-06-13T00:14:15.785Z,66
2018-06-13T00:15:16.510Z,66
2018-06-13T00:16:17.234Z,66
2018-06-13T00:17:17.946Z,66
2018-06-13T00:18:18.657Z,66
2018-06-13T00:19:19.370Z,66
2018-06-13T00:20:20.080Z,66
2018-06-13T00:21:20.801Z,66
2018-06-13T00:22:21.512Z,66
2018-06-13T00:23:22.226Z,66
2018-06-13T00:24:22.936Z,66
2018-06-13T00:25:23.647Z,66
2018-06-13T00:26:24.357Z,66
2018-06-13T00:27:25.070Z,66
2018-06-13T00:28:25.779Z,66
2018-06-13T00:29:26.489Z,66
2018-06-13T00:30:27.212Z,66
2018-06-13T00:31:27.926Z,66
2018-06-13T00:32:28.640Z,66
2018-06-13T00:33:29.351Z,66
2018-06-13T00:34:30.067Z,65
2018-06-13T00:35:30.775Z,66
2018-06-13T00:36:31.487Z,66
2018-06-13T00:37:32.200Z,66
2018-06-13T00:38:32.911Z,65
2018-06-13T00:39:33.624Z,65
2018-06-13T00:40:34.352Z,65
2018-06-13T00:41:35.073Z,65
2018-06-13T00:42:35.786Z,65
2018-06-13T00:43:36.500Z,65
2018-06-13T00:44:37.224Z,65
2018-06-13T00:45:37.934Z,65
2018-06-13T00:46:38.643Z,65
2018-06-13T00:47:39.355Z,65
2018-06-13T00:48:40.067Z,65
2018-06-13T00:49:40.782Z,65
2018-06-13T00:50:41.491Z,65
2018-06-13T00:51:42.215Z,65
2018-06-13T00:52:42.939Z,65
2018-06-13T00:53:43.661Z,64
2018-06-13T00:54:44.372Z,64
2018-06-13T00:55:45.083Z,64
2018-06-13T00:56:45.794Z,64
2018-06-13T00:57:46.506Z,65
2018-06-13T00:58:47.233Z,64
2018-06-13T00:59:47.954Z,64
2018-06-13T01:00:48.666Z,65
2018-06-13T01:01:49.377Z,64
2018-06-13T01:02:50.089Z,64
2018-06-13T01:03:50.800Z,64
2018-06-13T01:04:51.511Z,64
2018-06-13T01:05:52.225Z,64
2018-06-13T01:06:52.933Z,64
2018-06-13T01:07:53.648Z,64
2018-06-13T01:08:54.358Z,64
2018-06-13T01:09:55.069Z,64
2018-06-13T01:10:55.782Z,64
2018-06-13T01:11:56.493Z,64
2018-06-13T01:12:57.214Z,64
2018-06-13T01:13:57.965Z,64
2018-06-13T01:14:58.638Z,64
2018-06-13T01:15:59.348Z,64
2018-06-13T01:17:00.071Z,64
2018-06-13T01:18:00.780Z,64
2018-06-13T01:19:01.490Z,64
2018-06-13T01:20:02.202Z,64
2018-06-13T01:21:02.913Z,64
2018-06-13T01:22:03.635Z,64
2018-06-13T01:23:04.345Z,64
2018-06-13T01:24:05.054Z,63
2018-06-13T01:25:05.778Z,63
2018-06-13T01:26:06.488Z,64
2018-06-13T01:27:07.210Z,64
2018-06-13T01:28:07.918Z,63
2018-06-13T01:29:08.677Z,64
2018-06-13T01:30:09.354Z,64
2018-06-13T01:31:10.065Z,64
2018-06-13T01:32:10.789Z,63
2018-06-13T01:33:11.501Z,64
2018-06-13T01:34:12.214Z,63
2018-06-13T01:35:12.928Z,64
2018-06-13T01:36:13.641Z,64
2018-06-13T01:37:14.363Z,64
2018-06-13T01:38:15.077Z,63
2018-06-13T01:39:15.797Z,63
2018-06-13T01:40:16.508Z,63
2018-06-13T01:41:17.219Z,64
2018-06-13T01:42:17.930Z,63
2018-06-13T01:43:18.640Z,64
2018-06-13T01:44:19.349Z,64
2018-06-13T01:45:20.059Z,64
2018-06-13T01:46:20.769Z,63
2018-06-13T01:47:21.489Z,63
2018-06-13T01:48:22.199Z,63
2018-06-13T01:49:22.909Z,63
2018-06-13T01:50:23.620Z,63
2018-06-13T01:51:24.330Z,63
2018-06-13T01:52:25.041Z,63
2018-06-13T01:53:25.751Z,63
2018-06-13T01:54:26.476Z,63
2018-06-13T01:55:27.187Z,63
2018-06-13T01:56:27.897Z,63
2018-06-13T01:57:28.606Z,63
2018-06-13T01:58:29.328Z,63
2018-06-13T01:59:30.039Z,63
2018-06-13T02:00:30.749Z,62
2018-06-13T02:01:31.457Z,63
2018-06-13T02:02:32.169Z,63
2018-06-13T02:03:32.881Z,62
2018-06-13T02:04:33.593Z,62
2018-06-13T02:05:34.302Z,62
2018-06-13T02:06:35.015Z,62
2018-06-13T02:07:35.729Z,62
2018-06-13T02:08:36.448Z,62
2018-06-13T02:09:37.160Z,62
2018-06-13T02:10:37.870Z,62
2018-06-13T02:11:38.616Z,62
2018-06-13T02:12:39.291Z,62
2018-06-13T02:13:40.015Z,62
2018-06-13T02:14:40.736Z,63
2018-06-13T02:15:41.449Z,63
2018-06-13T02:16:42.160Z,62
2018-06-13T02:17:42.871Z,62
2018-06-13T02:18:43.582Z,62
2018-06-13T02:19:44.291Z,62
2018-06-13T02:20:45.003Z,62
2018-06-13T02:21:45.712Z,62
2018-06-13T02:22:46.421Z,62
2018-06-13T02:23:47.130Z,62
2018-06-13T02:24:47.841Z,62
2018-06-13T02:25:48.555Z,62
2018-06-13T02:26:49.269Z,62
2018-06-13T02:27:49.978Z,62
2018-06-13T02:28:50.688Z,62
2018-06-13T02:29:51.412Z,62
2018-06-13T02:30:52.123Z,62
2018-06-13T02:31:52.834Z,62
2018-06-13T02:32:53.544Z,62
2018-06-13T02:33:54.253Z,62
2018-06-13T02:34:54.965Z,62
2018-06-13T02:35:55.685Z,62
2018-06-13T02:36:56.390Z,62
2018-06-13T02:37:57.114Z,62
2018-06-13T02:38:57.824Z,62
2018-06-13T02:39:58.543Z,62
2018-06-13T02:40:59.254Z,62
2018-06-13T02:41:59.977Z,61
2018-06-13T02:43:00.685Z,61
2018-06-13T02:44:01.408Z,62
2018-06-13T02:45:02.121Z,62
2018-06-13T02:46:02.838Z,61
2018-06-13T02:47:03.549Z,62
2018-06-13T02:48:04.261Z,62
2018-06-13T02:49:04.986Z,62
2018-06-13T02:50:05.707Z,61
2018-06-13T02:51:06.432Z,62
2018-06-13T02:52:07.141Z,62
2018-06-13T02:53:07.854Z,62
2018-06-13T02:54:08.569Z,62
2018-06-13T02:55:09.289Z,61
2018-06-13T02:56:10.020Z,61
2018-06-13T02:57:10.737Z,61
2018-06-13T02:58:11.449Z,61
2018-06-13T02:59:12.160Z,61
2018-06-13T03:00:12.883Z,61
2018-06-13T03:01:13.593Z,61
2018-06-13T03:02:14.307Z,61
2018-06-13T03:03:15.019Z,61
2018-06-13T03:04:15.731Z,61
2018-06-13T03:05:16.446Z,61
2018-06-13T03:06:17.164Z,61
2018-06-13T03:07:17.877Z,61
2018-06-13T03:08:18.590Z,61
2018-06-13T03:09:19.319Z,61
2018-06-13T03:10:20.028Z,61
2018-06-13T03:11:20.742Z,61
2018-06-13T03:12:21.455Z,61
2018-06-13T03:13:22.167Z,60
2018-06-13T03:14:22.880Z,61
2018-06-13T03:15:23.591Z,61
2018-06-13T03:16:24.302Z,60
2018-06-13T03:17:25.026Z,61
2018-06-13T03:18:25.737Z,60
2018-06-13T03:19:26.483Z,60
2018-06-13T03:20:27.170Z,60
2018-06-13T03:21:27.882Z,60
2018-06-13T03:22:28.595Z,60
2018-06-13T03:23:29.308Z,60
2018-06-13T03:24:30.032Z,60
2018-06-13T03:25:30.745Z,60
2018-06-13T03:26:31.458Z,60
2018-06-13T03:27:32.172Z,60
2018-06-13T03:28:32.884Z,60
2018-06-13T03:29:33.597Z,60
2018-06-13T03:30:34.311Z,60
2018-06-13T03:31:35.027Z,60
2018-06-13T03:32:35.742Z,60
2018-06-13T03:33:36.466Z,60
2018-06-13T03:34:37.186Z,60
2018-06-13T03:35:37.891Z,60
2018-06-13T03:36:38.609Z,60
2018-06-13T03:37:39.327Z,60
2018-06-13T03:38:40.041Z,60
2018-06-13T03:39:40.754Z,60
2018-06-13T03:40:41.465Z,60
2018-06-13T03:41:42.181Z,59
2018-06-13T03:42:42.906Z,60
2018-06-13T03:43:43.620Z,60
2018-06-13T03:44:44.345Z,59
2018-06-13T03:45:45.059Z,59
2018-06-13T03:46:45.772Z,60
2018-06-13T03:47:46.486Z,59
2018-06-13T03:48:47.201Z,59
2018-06-13T03:49:47.913Z,60
2018-06-13T03:50:48.629Z,59
2018-06-13T03:51:49.354Z,59
2018-06-13T03:52:50.071Z,59
2018-06-13T03:53:50.786Z,59
2018-06-13T03:54:51.502Z,59
2018-06-13T03:55:52.226Z,59
2018-06-13T03:56:52.950Z,59
2018-06-13T03:57:53.667Z,59
2018-06-13T03:58:54.392Z,59
2018-06-13T03:59:55.105Z,59
2018-06-13T04:00:55.819Z,59
2018-06-13T04:01:56.544Z,59
2018-06-13T04:02:57.260Z,59
2018-06-13T04:03:57.983Z,59
2018-06-13T04:04:58.697Z,59
2018-06-13T04:05:59.410Z,59
2018-06-13T04:07:00.123Z,59
2018-06-13T04:08:00.838Z,59
2018-06-13T04:09:01.552Z,59
2018-06-13T04:10:02.267Z,59
2018-06-13T04:11:02.981Z,59
2018-06-13T04:12:03.699Z,59
2018-06-13T04:13:04.413Z,59
2018-06-13T04:14:05.137Z,59
2018-06-13T04:15:05.852Z,59
2018-06-13T04:16:06.565Z,59
2018-06-13T04:17:07.281Z,59
2018-06-13T04:18:07.998Z,59
2018-06-13T04:19:08.723Z,59
2018-06-13T04:20:09.440Z,59
2018-06-13T04:21:10.153Z,59
2018-06-13T04:22:10.868Z,59
2018-06-13T04:23:11.590Z,59
2018-06-13T04:24:12.304Z,59
2018-06-13T04:25:13.034Z,59
2018-06-13T04:26:13.761Z,59
2018-06-13T04:27:14.487Z,59
2018-06-13T04:28:15.204Z,59
2018-06-13T04:29:15.932Z,59
2018-06-13T04:30:16.649Z,59
2018-06-13T04:31:17.365Z,59
2018-06-13T04:32:18.091Z,59
2018-06-13T04:33:18.807Z,59
2018-06-13T04:34:19.521Z,59
2018-06-13T04:35:20.235Z,59
2018-06-13T04:36:20.950Z,60
2018-06-13T04:37:21.665Z,60
2018-06-13T04:38:22.380Z,60
2018-06-13T04:39:23.098Z,61
2018-06-13T04:40:23.825Z,61
2018-06-13T04:41:24.539Z,60
2018-06-13T04:42:25.255Z,60
2018-06-13T04:43:25.970Z,61
2018-06-13T04:44:26.685Z,60
2018-06-13T04:45:27.399Z,60
2018-06-13T04:46:28.114Z,60
2018-06-13T04:47:28.830Z,60
2018-06-13T04:48:29.545Z,61
2018-06-13T04:49:30.259Z,61
2018-06-13T04:50:30.975Z,60
2018-06-13T04:51:31.692Z,60
2018-06-13T04:52:32.419Z,61
2018-06-13T04:53:33.144Z,60
2018-06-13T04:54:33.859Z,60
2018-06-13T04:55:34.576Z,61
2018-06-13T04:56:35.288Z,61
2018-06-13T04:57:36.005Z,61
2018-06-13T04:58:36.720Z,61
2018-06-13T04:59:37.437Z,61
2018-06-13T05:00:38.153Z,61
2018-06-13T05:01:38.868Z,61
2018-06-13T05:02:39.596Z,61
2018-06-13T05:03:40.311Z,61
2018-06-13T05:04:41.028Z,61
2018-06-13T05:05:41.741Z,61
2018-06-13T05:06:42.455Z,61
2018-06-13T05:07:43.184Z,62
2018-06-13T05:08:43.899Z,61
2018-06-13T05:09:44.615Z,61
2018-06-13T05:10:45.331Z,61
2018-06-13T05:11:46.045Z,61
2018-06-13T05:12:46.761Z,61
2018-06-13T05:13:47.476Z,62
2018-06-13T05:14:48.214Z,62
2018-06-13T05:15:48.929Z,61
2018-06-13T05:16:49.644Z,62
2018-06-13T05:17:50.365Z,62
2018-06-13T05:18:51.081Z,63
2018-06-13T05:19:51.804Z,62
2018-06-13T05:20:52.518Z,62
2018-06-13T05:21:53.233Z,62
2018-06-13T05:22:53.948Z,63
2018-06-13T05:23:54.662Z,63
2018-06-13T05:24:55.377Z,63
2018-06-13T05:25:56.092Z,63
2018-06-13T05:26:56.823Z,63
2018-06-13T05:27:57.539Z,64
2018-06-13T05:28:58.253Z,63
2018-06-13T05:29:58.968Z,63
2018-06-13T05:30:59.695Z,63
2018-06-13T05:32:00.412Z,63
2018-06-13T05:33:01.128Z,63
2018-06-13T05:34:01.844Z,62
2018-06-13T05:35:02.560Z,63
2018-06-13T05:36:03.276Z,63
2018-06-13T05:37:03.996Z,63
2018-06-13T05:38:04.724Z,63
2018-06-13T05:39:05.452Z,63
2018-06-13T05:40:06.172Z,63
2018-06-13T05:41:06.903Z,63
2018-06-13T05:42:07.617Z,62
2018-06-13T05:43:08.347Z,63
2018-06-13T05:44:09.064Z,62
2018-06-13T05:45:09.781Z,62
2018-06-13T05:46:10.501Z,62
2018-06-13T05:47:11.218Z,61
2018-06-13T05:48:11.935Z,62
2018-06-13T05:49:12.653Z,62
2018-06-13T05:50:13.370Z,62
2018-06-13T05:51:14.088Z,61
2018-06-13T05:52:14.805Z,61
2018-06-13T05:53:15.536Z,61
2018-06-13T05:54:16.255Z,61
2018-06-13T05:55:16.970Z,62
2018-06-13T05:56:17.686Z,61
2018-06-13T05:57:18.403Z,61
2018-06-13T05:58:19.119Z,61
2018-06-13T05:59:19.836Z,61
2018-06-13T06:00:20.553Z,61
2018-06-13T06:01:21.308Z,61
2018-06-13T06:02:21.986Z,61
2018-06-13T06:03:22.700Z,61
2018-06-13T06:04:23.417Z,60
2018-06-13T06:05:24.132Z,60
2018-06-13T06:06:24.848Z,61
2018-06-13T06:07:25.577Z,61
2018-06-13T06:08:26.292Z,61
2018-06-13T06:09:27.009Z,61
2018-06-13T06:10:27.837Z,61
2018-06-13T06:11:28.442Z,61
2018-06-13T06:12:29.161Z,60
2018-06-13T06:13:29.877Z,61
2018-06-13T06:14:30.598Z,61
2018-06-13T06:15:31.310Z,62
2018-06-13T06:16:32.029Z,63
2018-06-13T06:17:32.747Z,63
2018-06-13T06:18:33.464Z,61
2018-06-13T06:19:34.193Z,63
2018-06-13T06:20:34.912Z,63
2018-06-13T06:21:35.629Z,62
2018-06-13T06:22:36.349Z,63
2018-06-13T06:23:37.082Z,62
2018-06-13T06:24:37.786Z,65
2018-06-13T06:25:38.504Z,64
2018-06-13T06:26:39.221Z,65
2018-06-13T06:27:39.939Z,65
2018-06-13T06:28:40.655Z,64
2018-06-13T06:29:41.373Z,65
2018-06-13T06:30:42.091Z,65
2018-06-13T06:31:42.810Z,65
2018-06-13T06:32:43.528Z,65
2018-06-13T06:33:44.246Z,65
2018-06-13T06:34:44.976Z,65
2018-06-13T06:35:45.695Z,65
2018-06-13T06:36:46.410Z,66
2018-06-13T06:37:47.129Z,66
2018-06-13T06:38:47.847Z,66
2018-06-13T06:39:48.580Z,66
2018-06-13T06:40:49.310Z,64
2018-06-13T06:41:50.041Z,68
2018-06-13T06:42:50.758Z,65
2018-06-13T06:43:51.488Z,68
2018-06-13T06:44:52.206Z,67
2018-06-13T06:45:52.923Z,68
2018-06-13T06:46:53.641Z,67
2018-06-13T06:47:54.359Z,67
2018-06-13T06:48:55.091Z,67
2018-06-13T06:49:55.821Z,67
2018-06-13T06:50:56.539Z,67
2018-06-13T06:51:57.256Z,68
2018-06-13T06:52:57.990Z,68
2018-06-13T06:53:58.715Z,68
2018-06-13T06:54:59.444Z,68
2018-06-13T06:56:00.176Z,68
2018-06-13T06:57:00.906Z,68
2018-06-13T06:58:01.636Z,69
2018-06-13T06:59:02.354Z,69
2018-06-13T07:00:03.074Z,69
2018-06-13T07:01:03.803Z,69
2018-06-13T07:02:04.521Z,68
2018-06-13T07:03:05.239Z,70
2018-06-13T07:04:05.958Z,69
2018-06-13T07:05:06.688Z,70
2018-06-13T07:06:07.409Z,70
2018-06-13T07:07:08.131Z,70
2018-06-13T07:08:08.859Z,71
2018-06-13T07:09:09.579Z,71
2018-06-13T07:10:10.298Z,71
2018-06-13T07:11:11.021Z,71
2018-06-13T07:12:11.753Z,71
2018-06-13T07:14:13.199Z,71
2018-06-13T07:15:13.931Z,72
2018-06-13T07:16:14.651Z,72
2018-06-13T07:17:15.371Z,73
2018-06-13T07:18:16.089Z,73
2018-06-13T07:19:16.809Z,72
2018-06-13T07:20:17.530Z,74
2018-06-13T07:21:18.251Z,74
2018-06-13T07:22:18.969Z,73
2018-06-13T07:23:19.689Z,74
2018-06-13T07:24:20.423Z,73
2018-06-13T07:25:21.143Z,74
2018-06-13T07:26:21.863Z,74
2018-06-13T07:27:22.582Z,74
2018-06-13T07:28:23.303Z,74
2018-06-13T07:29:24.022Z,75
2018-06-13T07:30:24.754Z,74
2018-06-13T07:31:25.475Z,74
2018-06-13T07:32:26.191Z,74
2018-06-13T07:33:26.911Z,74
2018-06-13T07:34:27.635Z,74
2018-06-13T07:35:28.351Z,74
2018-06-13T07:36:29.081Z,74
2018-06-13T07:37:29.807Z,74
2018-06-13T07:38:30.523Z,74
2018-06-13T07:39:31.241Z,74
2018-06-13T07:40:31.961Z,74
2018-06-13T07:41:32.731Z,74
2018-06-13T07:42:33.412Z,74
2018-06-13T07:43:34.145Z,75
2018-06-13T07:44:34.863Z,74
2018-06-13T07:45:35.581Z,74
2018-06-13T07:46:36.299Z,74
2018-06-13T07:47:37.030Z,74
2018-06-13T07:48:37.763Z,74
2018-06-13T07:49:38.530Z,73
2018-06-13T07:50:39.212Z,74
2018-06-13T07:51:39.931Z,74
2018-06-13T07:52:40.647Z,74
2018-06-13T07:53:41.365Z,73
2018-06-13T07:54:42.084Z,73
2018-06-13T07:55:42.802Z,73
2018-06-13T07:56:43.522Z,73
2018-06-13T07:57:44.243Z,73
2018-06-13T07:58:44.962Z,73
2018-06-13T07:59:45.680Z,73
2018-06-13T08:00:46.397Z,73
2018-06-13T08:01:47.114Z,73
2018-06-13T08:02:47.836Z,73
2018-06-13T08:03:48.555Z,73
2018-06-13T08:04:49.272Z,73
2018-06-13T08:05:49.990Z,74
2018-06-13T08:06:50.708Z,73
2018-06-13T08:07:51.427Z,73
2018-06-13T08:08:52.169Z,73
2018-06-13T08:09:52.867Z,73
2018-06-13T08:10:53.597Z,74
2018-06-13T08:11:54.316Z,74
2018-06-13T08:12:55.036Z,74
2018-06-13T08:13:55.753Z,74
2018-06-13T08:14:56.472Z,74
2018-06-13T08:15:57.206Z,74
2018-06-13T08:16:57.983Z,74
2018-06-13T08:17:58.643Z,74
2018-06-13T08:18:59.363Z,74
2018-06-13T08:20:00.085Z,73
2018-06-13T08:21:00.808Z,73
2018-06-13T08:22:01.539Z,73
2018-06-13T08:23:02.268Z,73
2018-06-13T08:24:02.997Z,73
2018-06-13T08:25:03.716Z,73
2018-06-13T08:26:04.458Z,73
2018-06-13T08:27:05.152Z,73
2018-06-13T08:28:05.881Z,71
2018-06-13T08:29:06.598Z,70
2018-06-13T08:30:07.316Z,68
2018-06-13T08:31:08.035Z,68
2018-06-13T08:32:08.753Z,68
2018-06-13T08:33:09.471Z,68
2018-06-13T08:34:10.191Z,68
2018-06-13T08:35:10.909Z,67
2018-06-13T08:36:11.627Z,67
2018-06-13T08:37:12.363Z,67
2018-06-13T08:38:13.088Z,67
2018-06-13T08:39:13.806Z,68
2018-06-13T08:40:14.524Z,68
2018-06-13T08:41:15.243Z,69
2018-06-13T08:42:15.959Z,69
2018-06-13T08:43:16.687Z,69
2018-06-13T08:44:17.404Z,69
2018-06-13T08:45:18.121Z,69
2018-06-13T08:46:18.838Z,70
2018-06-13T08:47:19.570Z,71
2018-06-13T08:48:20.287Z,70
2018-06-13T08:49:21.004Z,71
2018-06-13T08:50:21.720Z,71
2018-06-13T08:51:22.438Z,71
2018-06-13T08:52:23.156Z,71
2018-06-13T08:53:23.884Z,72
2018-06-13T08:54:24.615Z,72
2018-06-13T08:55:25.334Z,72
2018-06-13T08:56:26.050Z,73
2018-06-13T08:57:26.770Z,73
2018-06-13T08:58:27.490Z,73
2018-06-13T08:59:28.206Z,73
2018-06-13T09:00:28.923Z,73
2018-06-13T09:01:29.641Z,73
2018-06-13T09:02:30.372Z,74
2018-06-13T09:03:31.089Z,73
2018-06-13T09:04:31.805Z,73
2018-06-13T09:05:32.524Z,73
2018-06-13T09:06:33.253Z,73
2018-06-13T09:07:33.973Z,73
2018-06-13T09:08:34.705Z,74
2018-06-13T09:09:35.423Z,74
2018-06-13T09:10:36.141Z,74
2018-06-13T09:11:36.861Z,75
2018-06-13T09:12:37.582Z,75
2018-06-13T09:13:38.313Z,75
2018-06-13T09:14:39.036Z,75
2018-06-13T09:15:39.757Z,75
2018-06-13T09:16:40.476Z,75
2018-06-13T09:17:41.197Z,75
2018-06-13T09:18:41.921Z,75
2018-06-13T09:19:42.654Z,75
2018-06-13T09:20:43.387Z,74
2018-06-13T09:21:44.109Z,75
2018-06-13T09:22:44.832Z,74
2018-06-13T09:23:45.567Z,74
2018-06-13T09:24:46.299Z,74
2018-06-13T09:25:47.022Z,74
2018-06-13T09:26:47.745Z,74
2018-06-13T09:27:48.466Z,73
2018-06-13T09:28:49.188Z,72
2018-06-13T09:29:49.924Z,72
2018-06-13T09:30:50.657Z,71
2018-06-13T09:31:51.380Z,70
2018-06-13T09:32:52.114Z,71
2018-06-13T09:33:52.838Z,71
2018-06-13T09:34:53.561Z,70
2018-06-13T09:35:54.295Z,70
2018-06-13T09:36:55.030Z,70
2018-06-13T09:37:55.754Z,69
2018-06-13T09:38:56.478Z,71
2018-06-13T09:39:57.199Z,70
2018-06-13T09:40:57.924Z,71
2018-06-13T09:41:58.648Z,68
2018-06-13T09:42:59.388Z,68
2018-06-13T09:44:00.163Z,68
2018-06-13T09:45:00.850Z,68
2018-06-13T09:46:03.561Z,69
2018-06-13T09:47:06.906Z,69
2018-06-13T09:48:03.031Z,70
2018-06-13T09:49:03.757Z,70
2018-06-13T09:50:04.521Z,69
2018-06-13T09:51:05.216Z,69
2018-06-13T09:52:05.939Z,69
2018-06-13T09:53:06.676Z,69
2018-06-13T09:54:07.402Z,69
2018-06-13T09:55:08.135Z,68
2018-06-13T09:56:08.862Z,68
2018-06-13T09:57:09.587Z,67
2018-06-13T09:58:10.315Z,68
2018-06-13T09:59:11.050Z,70
2018-06-13T10:00:11.775Z,70
2018-06-13T10:01:12.499Z,71
2018-06-13T10:02:13.268Z,71
2018-06-13T10:03:13.942Z,70
2018-06-13T10:04:14.677Z,71
2018-06-13T10:05:15.412Z,71
2018-06-13T10:06:16.136Z,72
2018-06-13T10:07:16.858Z,72
2018-06-13T10:08:17.580Z,73
2018-06-13T10:09:18.303Z,73
2018-06-13T10:10:19.025Z,73
2018-06-13T10:11:19.769Z,73
2018-06-13T10:12:20.471Z,73
2018-06-13T10:13:21.193Z,71
2018-06-13T10:14:21.916Z,70
2018-06-13T10:15:22.638Z,69
2018-06-13T10:16:23.361Z,70
2018-06-13T10:17:24.085Z,70
2018-06-13T10:18:24.807Z,69
2018-06-13T10:19:25.541Z,70
2018-06-13T10:20:26.277Z,70
2018-06-13T10:21:26.999Z,69
2018-06-13T10:22:27.722Z,69
2018-06-13T10:23:28.443Z,68
2018-06-13T10:24:29.167Z,69
2018-06-13T10:25:29.945Z,68
2018-06-13T10:26:30.658Z,68
2018-06-13T10:27:31.341Z,68
2018-06-13T10:28:32.071Z,68
2018-06-13T10:29:32.794Z,69
2018-06-13T10:30:33.518Z,69
2018-06-13T10:31:34.241Z,69
2018-06-13T10:32:34.964Z,70
2018-06-13T10:33:35.689Z,69
2018-06-13T10:34:36.409Z,70
2018-06-13T10:35:37.133Z,67
2018-06-13T10:36:37.856Z,67
2018-06-13T10:37:38.594Z,67
2018-06-13T10:38:39.322Z,66
2018-06-13T10:39:40.048Z,66
2018-06-13T10:40:40.779Z,67
2018-06-13T10:41:41.504Z,67
2018-06-13T10:42:42.226Z,65
2018-06-13T10:43:42.964Z,65
2018-06-13T10:44:43.686Z,64
2018-06-13T10:45:44.410Z,64
2018-06-13T10:46:45.133Z,64
2018-06-13T10:47:45.860Z,64
2018-06-13T10:48:46.582Z,63
2018-06-13T10:49:47.309Z,60
2018-06-13T10:50:48.032Z,61
2018-06-13T10:51:48.754Z,61
2018-06-13T10:52:49.485Z,63
2018-06-13T10:53:50.246Z,64
2018-06-13T10:54:50.931Z,63
2018-06-13T10:55:51.658Z,64
2018-06-13T10:56:52.390Z,63
2018-06-13T10:57:53.108Z,64
2018-06-13T10:58:53.835Z,64
2018-06-13T10:59:54.564Z,64
2018-06-13T11:00:55.304Z,63
2018-06-13T11:01:56.032Z,62
2018-06-13T11:02:56.760Z,63
2018-06-13T11:03:57.485Z,62
2018-06-13T11:04:58.215Z,61
2018-06-13T11:05:58.943Z,61
2018-06-13T11:06:59.667Z,61
2018-06-13T11:08:00.405Z,62
2018-06-13T11:09:01.132Z,63
2018-06-13T11:10:01.860Z,63
2018-06-13T11:11:02.582Z,63
2018-06-13T11:12:03.303Z,64
2018-06-13T11:13:04.040Z,64
2018-06-13T11:14:04.761Z,66
2018-06-13T11:15:05.482Z,67
2018-06-13T11:16:06.207Z,67
2018-06-13T11:17:06.929Z,68
2018-06-13T11:18:07.654Z,69
2018-06-13T11:19:08.370Z,69
2018-06-13T11:20:09.091Z,69
2018-06-13T11:21:09.819Z,69
2018-06-13T11:22:10.538Z,70
2018-06-13T11:23:11.258Z,70
2018-06-13T11:24:11.980Z,70
2018-06-13T11:25:12.703Z,70
2018-06-13T11:26:13.452Z,70
2018-06-13T11:27:14.158Z,70
2018-06-13T11:28:14.879Z,69
2018-06-13T11:29:15.617Z,68
2018-06-13T11:30:16.347Z,68
2018-06-13T11:31:17.067Z,67
2018-06-13T11:32:17.789Z,68
2018-06-13T11:33:18.512Z,68
2018-06-13T11:34:19.233Z,68
2018-06-13T11:35:19.955Z,67
2018-06-13T11:36:20.679Z,67
2018-06-13T11:37:21.409Z,67
2018-06-13T11:38:22.143Z,68
2018-06-13T11:39:22.876Z,67
2018-06-13T11:40:23.597Z,67
2018-06-13T11:41:24.361Z,67
2018-06-13T11:42:25.063Z,67
2018-06-13T11:43:25.786Z,67
2018-06-13T11:44:26.508Z,68
2018-06-13T11:45:27.242Z,68
2018-06-13T11:46:27.965Z,68
2018-06-13T11:47:28.685Z,67
2018-06-13T11:48:29.407Z,66
2018-06-13T11:49:30.132Z,66
2018-06-13T11:50:30.866Z,67
2018-06-13T11:51:31.590Z,67
2018-06-13T11:52:32.313Z,67
2018-06-13T11:53:33.088Z,67
2018-06-13T11:54:33.769Z,67
2018-06-13T11:55:34.490Z,68
2018-06-13T11:56:35.213Z,67
2018-06-13T11:57:35.938Z,68
2018-06-13T11:58:36.673Z,66
2018-06-13T11:59:37.396Z,66
2018-06-13T12:00:38.117Z,66
2018-06-13T12:01:38.843Z,66
2018-06-13T12:02:39.560Z,65
2018-06-13T12:03:40.285Z,65
2018-06-13T12:04:41.007Z,63
2018-06-13T12:05:41.745Z,59
2018-06-13T12:06:42.467Z,59
2018-06-13T12:07:43.190Z,60
2018-06-13T12:08:43.913Z,59
2018-06-13T12:09:44.641Z,60
2018-06-13T12:10:45.369Z,59
2018-06-13T12:11:46.100Z,58
2018-06-13T12:12:46.825Z,58
2018-06-13T12:13:47.552Z,57
2018-06-13T12:14:48.285Z,57
2018-06-13T12:15:49.023Z,56
2018-06-13T12:16:49.780Z,56
2018-06-13T12:17:50.483Z,54
2018-06-13T12:18:51.214Z,53
2018-06-13T12:19:51.950Z,52
2018-06-13T12:20:52.677Z,52
2018-06-13T12:21:53.403Z,52
2018-06-13T12:22:54.132Z,53
2018-06-13T12:23:54.861Z,54
2018-06-13T12:24:55.589Z,54
2018-06-13T12:25:56.314Z,55
2018-06-13T12:26:57.061Z,55
2018-06-13T12:27:57.788Z,55
2018-06-13T12:28:58.514Z,55
2018-06-13T12:29:59.251Z,55
2018-06-13T12:30:59.989Z,55
2018-06-13T12:32:00.714Z,55
2018-06-13T12:33:01.456Z,55
2018-06-13T12:34:02.195Z,56
2018-06-13T12:35:02.936Z,54
2018-06-13T12:36:03.666Z,54
2018-06-13T12:37:04.406Z,53
2018-06-13T12:38:05.137Z,51
2018-06-13T12:39:05.870Z,51
2018-06-13T12:40:06.598Z,49
2018-06-13T12:41:07.327Z,48
2018-06-13T12:42:08.055Z,46
2018-06-13T12:43:08.782Z,46
2018-06-13T12:44:09.521Z,48
2018-06-13T12:45:10.249Z,48
2018-06-13T12:46:10.980Z,50
2018-06-13T12:47:11.709Z,51
2018-06-13T12:48:12.436Z,52
2018-06-13T12:49:13.162Z,52
2018-06-13T12:50:13.889Z,54
2018-06-13T12:51:14.609Z,55
2018-06-13T12:52:15.334Z,56
2018-06-13T12:53:16.059Z,56
2018-06-13T12:54:16.784Z,57
2018-06-13T12:55:17.508Z,58
2018-06-13T12:56:18.233Z,58
2018-06-13T12:57:18.964Z,58
2018-06-13T12:58:19.704Z,59
2018-06-13T12:59:20.433Z,59
2018-06-13T13:00:21.164Z,58
2018-06-13T13:01:21.893Z,58
2018-06-13T13:02:22.621Z,57
2018-06-13T13:03:23.351Z,57
2018-06-13T13:04:24.079Z,57
2018-06-13T13:05:24.805Z,56
2018-06-13T13:06:25.546Z,56
2018-06-13T13:07:26.275Z,56
2018-06-13T13:08:27.000Z,55
2018-06-13T13:09:27.744Z,53
2018-06-13T13:10:28.472Z,51
2018-06-13T13:11:29.201Z,51
2018-06-13T13:12:29.928Z,51
2018-06-13T13:13:30.670Z,52
2018-06-13T13:14:31.397Z,51
2018-06-13T13:15:32.140Z,51
2018-06-13T13:16:32.873Z,50
2018-06-13T13:17:33.605Z,51
2018-06-13T13:18:34.330Z,51
2018-06-13T13:19:35.056Z,51
2018-06-13T13:20:35.786Z,51
2018-06-13T13:21:36.526Z,51
2018-06-13T13:22:37.257Z,50
2018-06-13T13:23:37.983Z,50
2018-06-13T13:24:38.726Z,49
2018-06-13T13:25:39.448Z,49
2018-06-13T13:26:40.193Z,49
2018-06-13T13:27:40.919Z,48
2018-06-13T13:28:41.650Z,48
2018-06-13T13:29:42.389Z,47
2018-06-13T13:30:43.117Z,46
2018-06-13T13:31:43.845Z,46
2018-06-13T13:32:44.570Z,46
2018-06-13T13:33:45.297Z,47
2018-06-13T13:34:46.038Z,46
2018-06-13T13:35:46.793Z,48
2018-06-13T13:36:47.488Z,49
2018-06-13T13:37:48.226Z,50
2018-06-13T13:38:48.966Z,51
2018-06-13T13:39:49.700Z,52
2018-06-13T13:40:50.427Z,52
2018-06-13T13:41:51.162Z,54
2018-06-13T13:42:51.897Z,54
2018-06-13T13:43:52.628Z,55
2018-06-13T13:44:53.353Z,54
2018-06-13T13:45:54.152Z,54
2018-06-13T13:46:54.804Z,53
2018-06-13T13:47:55.534Z,53
2018-06-13T13:48:56.274Z,54
2018-06-13T13:49:56.999Z,54
2018-06-13T13:50:57.740Z,53
2018-06-13T13:51:58.474Z,53
2018-06-13T13:52:59.204Z,53
2018-06-13T13:54:00.025Z,52
2018-06-13T13:55:00.667Z,51
2018-06-13T13:56:01.398Z,51
2018-06-13T13:57:02.139Z,51
2018-06-13T13:58:02.867Z,51
2018-06-13T13:59:03.598Z,51
2018-06-13T14:00:04.328Z,49
2018-06-13T14:01:05.058Z,48
2018-06-13T14:02:05.797Z,47
2018-06-13T14:03:06.525Z,46
2018-06-13T14:04:07.254Z,45
2018-06-13T14:05:07.983Z,46
2018-06-13T14:06:08.710Z,47
2018-06-13T14:07:09.442Z,47
2018-06-13T14:08:10.169Z,48
2018-06-13T14:09:10.896Z,49
2018-06-13T14:10:11.634Z,49
2018-06-13T14:11:12.361Z,49
2018-06-13T14:12:13.098Z,49
2018-06-13T14:13:13.816Z,49
2018-06-13T14:14:14.547Z,48
2018-06-13T14:15:15.276Z,47
2018-06-13T14:16:16.008Z,47
2018-06-13T14:17:16.743Z,48
2018-06-13T14:18:17.470Z,48
2018-06-13T14:19:18.198Z,48
2018-06-13T14:20:18.927Z,48
2018-06-13T14:21:19.663Z,48
2018-06-13T14:22:20.453Z,49
2018-06-13T14:23:21.122Z,48
2018-06-13T14:24:21.846Z,48
2018-06-13T14:25:22.574Z,49
2018-06-13T14:26:23.299Z,50